Time;durP1;ratioP1;P1;durP2;ratioP2;P2;SDS_P1;SDS_P2;PMS_P1;PMS_P2;Temp;Humidity;BMP_temperature;BMP_pressure;BME280_temperature;BME280_humidity;BME280_pressure;Samples;Min_cycle;Max_cycle;Signal;HPM_P1;HPM_P2
2023/02/12 02:50:06;;;;;;;;;;;;;;;;;;4916397;29;19931;-92
2023/02/12 03:08:23;;;;;;;;;;;;;;;;;;;;;
2023/02/12 03:27:08;;;;;;;;;;;;;;;;;;;;;
2023/02/12 05:12:26;;;;;;;;;;;;;;;;;;4865386;29;19928;-94
2023/02/12 05:14:52;;;;;;;;;;;;;;;;;;4865549;29;20010;-95
2023/02/12 05:17:18;;;;;;;;;;;;;;;;;;4865760;29;19928;-94
2023/02/12 05:19:49;;;;;;;;;;;;;;;;;;4865346;29;19986;-95
2023/02/12 05:22:21;;;;;;;;;;;;;;;;;;4834973;29;19939;-95
2023/02/12 05:24:53;;;;;;;;;;;;;;;;;;4835386;29;19925;-95
2023/02/12 05:27:19;;;;;;;;;;;;;;;;;;4834937;29;19923;-96
2023/02/12 05:29:48;;;;;;;;;;;;;;;;;;4835474;29;19936;-95
2023/02/12 05:32:14;;;;;;;;;;;;;;;;;;4849895;29;19986;-95
2023/02/12 05:34:40;;;;;;;;;;;;;;;;;;4852183;29;19928;-96
2023/02/12 05:37:30;;;;;;;;;;;;;;;;;;4865127;29;19936;-96
2023/02/12 05:40:07;;;;;;;;;;;;;;;;;;4853294;29;20064;-96
2023/02/12 05:42:46;;;;;;;;;;;;;;;;;;;;;
2023/02/12 05:48:09;;;;;;;;;;;;;;;;;;4865444;29;20026;-96
2023/02/12 05:50:42;;;;;;;;;;;;;;;;;;4834015;29;20022;-96
2023/02/12 05:53:11;;;;;;;;;;;;;;;;;;4850057;29;19928;-96
2023/02/12 07:44:19;;;;;;;;;;;;;;;;;;5027821;23;20017;-95
2023/02/12 07:46:45;;;;;;;;;;;;;;;;;;4891631;29;19970;-92
2023/02/12 07:51:46;;;;;;;;;;;;;;;;;;5150812;23;19928;-94
2023/02/12 08:12:42;;;;;;;;;;;;;;;;;;5167304;23;19931;-93
2023/02/12 09:52:57;;;;;;;;;;;;;;;;;;4985748;23;20009;-95
2023/02/12 17:40:57;;;;;;;;;;;;;;;;;;4920900;29;19927;-93
2023/02/12 17:43:26;;;;;;;;;;;;;;;;;;4911182;29;20030;-94
2023/02/12 17:45:52;;;;;;;;;;;;;;;;;;4899521;29;19923;-94
2023/02/12 17:48:27;;;;;;;;;;;;;;;;;;4914659;29;19923;-94
2023/02/12 17:50:54;;;;;;;;;;;;;;;;;;4903945;29;19922;-95
2023/02/12 17:53:27;;;;;;;;;;;;;;;;;;4915835;29;19945;-94
2023/02/12 17:55:53;;;;;;;;;;;;;;;;;;4914325;29;19986;-93
2023/02/12 17:58:19;;;;;;;;;;;;;;;;;;4900606;29;19927;-94
2023/02/12 18:00:48;;;;;;;;;;;;;;;;;;4916641;29;20013;-93
2023/02/12 18:03:14;;;;;;;;;;;;;;;;;;4902708;29;19973;-94
2023/02/12 18:05:40;;;;;;;;;;;;;;;;;;4918464;29;19927;-94
2023/02/12 18:08:06;;;;;;;;;;;;;;;;;;4901175;29;19930;-93
2023/02/12 18:10:32;;;;;;;;;;;;;;;;;;4902138;29;19927;-93
2023/02/12 18:12:58;;;;;;;;;;;;;;;;;;4900629;29;20014;-93
2023/02/12 18:15:24;;;;;;;;;;;;;;;;;;4918363;29;19927;-94
2023/02/12 18:17:51;;;;;;;;;;;;;;;;;;4904664;29;20356;-93
2023/02/12 18:20:18;;;;;;;;;;;;;;;;;;4904289;29;19923;-93
2023/02/12 18:22:44;;;;;;;;;;;;;;;;;;4902474;29;19961;-94
2023/02/12 18:25:13;;;;;;;;;;;;;;;;;;4902987;29;19927;-96
2023/02/12 18:27:42;;;;;;;;;;;;;;;;;;4903370;29;19931;-96
2023/02/12 18:30:08;;;;;;;;;;;;;;;;;;4902755;29;19927;-95
2023/02/12 18:32:35;;;;;;;;;;;;;;;;;;4902143;29;19971;-95
2023/02/12 18:35:01;;;;;;;;;;;;;;;;;;4902374;29;19971;-95
2023/02/12 18:37:27;;;;;;;;;;;;;;;;;;4917994;29;19934;-95
2023/02/12 18:39:53;;;;;;;;;;;;;;;;;;4902708;29;20365;-92
2023/02/12 18:42:19;;;;;;;;;;;;;;;;;;4902208;29;19938;-93
2023/02/12 18:44:45;;;;;;;;;;;;;;;;;;4915689;29;20335;-90
2023/02/12 18:47:11;;;;;;;;;;;;;;;;;;4886540;29;19923;-90
2023/02/12 18:49:39;;;;;;;;;;;;;;;;;;4886131;29;20276;-92
2023/02/12 18:52:08;;;;;;;;;;;;;;;;;;4901347;29;19927;-95
2023/02/12 18:54:34;;;;;;;;;;;;;;;;;;4884810;29;19924;-95
2023/02/12 18:57:00;;;;;;;;;;;;;;;;;;4883997;29;19927;-94
2023/02/12 19:02:36;;;;;;;;;;;;;;;;;;4887295;29;19928;-94
2023/02/12 19:05:02;;;;;;;;;;;;;;;;;;4868178;29;20114;-94
2023/02/12 19:07:46;;;;;;;;;;;;;;;;;;4868301;29;20104;-95
2023/02/12 19:10:12;;;;;;;;;;;;;;;;;;4883687;29;19929;-95
2023/02/12 19:12:38;;;;;;;;;;;;;;;;;;4883893;29;19924;-94
2023/02/12 19:15:03;;;;;;;;;;;;;;;;;;4883679;29;19975;-96
2023/02/12 19:17:29;;;;;;;;;;;;;;;;;;4867651;29;19923;-95
2023/02/12 19:19:58;;;;;;;;;;;;;;;;;;4883096;29;19949;-94
2023/02/12 19:22:24;;;;;;;;;;;;;;;;;;4867822;29;19981;-93
2023/02/12 19:24:53;;;;;;;;;;;;;;;;;;4884064;29;19924;-94
2023/02/12 19:27:19;;;;;;;;;;;;;;;;;;4867753;29;19975;-95
2023/02/12 19:29:50;;;;;;;;;;;;;;;;;;4867898;29;23692;-95
2023/02/12 19:32:15;;;;;;;;;;;;;;;;;;4883209;29;19931;-93
2023/02/12 19:34:41;;;;;;;;;;;;;;;;;;4882263;29;19923;-92
2023/02/12 19:37:11;;;;;;;;;;;;;;;;;;4866891;29;19924;-95
2023/02/12 19:39:37;;;;;;;;;;;;;;;;;;4867052;29;19979;-95
2023/02/12 19:42:03;;;;;;;;;;;;;;;;;;4866848;29;19971;-93
2023/02/12 19:44:29;;;;;;;;;;;;;;;;;;4874749;29;19923;-93
2023/02/12 19:46:56;;;;;;;;;;;;;;;;;;4885251;29;20466;-93
2023/02/12 19:49:22;;;;;;;;;;;;;;;;;;4900850;29;20389;-93
2023/02/12 19:51:48;;;;;;;;;;;;;;;;;;4885118;29;19923;-94
2023/02/12 19:54:14;;;;;;;;;;;;;;;;;;4885040;29;19927;-93
2023/02/12 19:56:40;;;;;;;;;;;;;;;;;;4917659;29;19927;-93
2023/02/12 19:59:06;;;;;;;;;;;;;;;;;;4884783;29;20014;-93
2023/02/12 20:01:32;;;;;;;;;;;;;;;;;;4885337;29;19927;-93
2023/02/12 20:04:00;;;;;;;;;;;;;;;;;;4884684;29;19923;-94
2023/02/12 20:06:26;;;;;;;;;;;;;;;;;;4884921;29;20358;-93
2023/02/12 20:08:52;;;;;;;;;;;;;;;;;;4884661;29;19931;-94
2023/02/12 20:11:18;;;;;;;;;;;;;;;;;;4885359;29;19927;-94
2023/02/12 20:13:44;;;;;;;;;;;;;;;;;;4884944;29;19924;-94
2023/02/12 20:16:10;;;;;;;;;;;;;;;;;;4884718;29;19938;-93
2023/02/12 20:18:38;;;;;;;;;;;;;;;;;;4901723;29;19924;-96
2023/02/12 20:24:12;;;;;;;;;;;;;;;;;;4890813;29;19931;-93
2023/02/12 20:26:57;;;;;;;;;;;;;;;;;;4919563;29;19923;-94
2023/02/12 20:29:46;;;;;;;;;;;;;;;;;;4916916;29;19923;-95
2023/02/12 20:37:57;;;;;;;;;;;;;;;;;;4886975;29;19923;-96
2023/02/12 20:40:35;;;;;;;;;;;;;;;;;;4890323;29;19935;-92
2023/02/12 20:43:01;;;;;;;;;;;;;;;;;;4865674;29;19931;-93
2023/02/12 20:45:30;;;;;;;;;;;;;;;;;;4865579;29;20379;-93
2023/02/12 20:47:56;;;;;;;;;;;;;;;;;;4896347;29;19927;-89
2023/02/12 20:50:21;;;;;;;;;;;;;;;;;;4865007;29;20386;-92
2023/02/12 20:52:47;;;;;;;;;;;;;;;;;;4850508;29;19946;-91
2023/02/12 20:55:13;;;;;;;;;;;;;;;;;;4861776;29;20276;-90
2023/02/12 20:57:39;;;;;;;;;;;;;;;;;;4846187;29;20094;-89
2023/02/12 21:00:05;;;;;;;;;;;;;;;;;;4862143;29;20313;-90
2023/02/12 21:02:33;;;;;;;;;;;;;;;;;;4878515;29;20373;-90
2023/02/12 21:04:59;;;;;;;;;;;;;;;;;;4845870;29;19923;-89
2023/02/12 21:07:25;;;;;;;;;;;;;;;;;;4845994;29;19934;-91
2023/02/12 21:09:52;;;;;;;;;;;;;;;;;;4861500;29;19980;-90
2023/02/12 21:12:21;;;;;;;;;;;;;;;;;;4847074;29;19924;-91
2023/02/12 21:14:47;;;;;;;;;;;;;;;;;;4846481;29;19931;-91
2023/02/12 21:17:13;;;;;;;;;;;;;;;;;;4846417;29;19970;-91
2023/02/12 21:19:39;;;;;;;;;;;;;;;;;;4846672;29;19931;-92
2023/02/12 21:22:05;;;;;;;;;;;;;;;;;;4846474;29;20383;-91
2023/02/12 21:24:32;;;;;;;;;;;;;;;;;;4877898;29;19927;-91
2023/02/12 21:26:58;;;;;;;;;;;;;;;;;;4846183;29;19931;-91
2023/02/12 21:29:26;;;;;;;;;;;;;;;;;;4861641;29;19946;-91
2023/02/12 21:31:52;;;;;;;;;;;;;;;;;;4861518;29;19924;-91
2023/02/12 21:34:18;;;;;;;;;;;;;;;;;;4845919;29;19975;-91
2023/02/12 21:36:44;;;;;;;;;;;;;;;;;;4846098;29;19924;-91
2023/02/12 21:39:10;;;;;;;;;;;;;;;;;;4850534;29;20030;-91
2023/02/12 21:41:36;;;;;;;;;;;;;;;;;;4864511;29;20025;-92
2023/02/12 21:44:01;;;;;;;;;;;;;;;;;;4880346;29;20296;-91
2023/02/12 21:46:27;;;;;;;;;;;;;;;;;;4880079;29;19930;-91
2023/02/12 21:48:56;;;;;;;;;;;;;;;;;;4880801;29;19940;-95
2023/02/12 21:51:22;;;;;;;;;;;;;;;;;;4867398;29;20349;-92
2023/02/12 21:53:48;;;;;;;;;;;;;;;;;;4884260;29;19970;-92
2023/02/12 21:56:14;;;;;;;;;;;;;;;;;;4868795;29;19930;-94
2023/02/12 21:58:58;;;;;;;;;;;;;;;;;;4871680;29;19927;-94
2023/02/12 22:01:24;;;;;;;;;;;;;;;;;;4889985;29;20285;-95
2023/02/12 22:03:50;;;;;;;;;;;;;;;;;;5091874;23;19927;-95
